createdAt,value
2022-10-28T00:01:17.608Z,9.10
2022-10-28T00:03:48.016Z,9.10
2022-10-28T00:06:35.341Z,9.00
2022-10-28T00:09:04.594Z,9.00
2022-10-28T00:11:34.790Z,9.00
2022-10-28T00:14:04.572Z,9.00
2022-10-28T00:16:33.567Z,9.00
2022-10-28T00:19:01.347Z,9.10
2022-10-28T00:21:31.576Z,9.10
2022-10-28T00:23:59.140Z,9.10
2022-10-28T00:26:31.366Z,9.10
2022-10-28T00:29:09.286Z,9.10
2022-10-28T00:31:38.246Z,9.10
2022-10-28T00:34:09.235Z,9.10
2022-10-28T00:36:38.176Z,9.10
2022-10-28T00:39:11.520Z,9.10
2022-10-28T00:41:41.071Z,9.00
2022-10-28T00:44:45.467Z,9.10
2022-10-28T00:47:21.611Z,9.10
2022-10-28T00:49:51.082Z,9.10
2022-10-28T00:52:22.760Z,9.20
2022-10-28T00:54:50.836Z,9.10
2022-10-28T00:57:26.046Z,9.20
2022-10-28T00:59:54.353Z,9.20
2022-10-28T01:02:21.627Z,9.20
2022-10-28T01:04:48.920Z,9.20
2022-10-28T01:07:17.666Z,9.20
2022-10-28T01:09:45.145Z,9.20
2022-10-28T01:12:15.293Z,9.20
2022-10-28T01:15:07.038Z,9.20
2022-10-28T01:17:41.595Z,9.10
2022-10-28T01:20:27.291Z,9.10
2022-10-28T01:23:21.916Z,9.10
2022-10-28T01:26:10.535Z,9.10
2022-10-28T01:29:18.711Z,9.10
2022-10-28T01:32:04.526Z,9.10
2022-10-28T01:34:49.593Z,9.10
2022-10-28T01:37:36.094Z,9.10
2022-10-28T01:40:06.659Z,9.20
2022-10-28T01:42:59.543Z,9.20
2022-10-28T01:45:39.930Z,9.20
2022-10-28T01:48:21.266Z,9.10
2022-10-28T01:51:08.970Z,9.20
2022-10-28T01:53:41.856Z,9.30
2022-10-28T01:56:12.618Z,9.30
2022-10-28T01:58:40.560Z,9.20
2022-10-28T02:01:09.791Z,9.20
2022-10-28T02:03:36.891Z,9.20
2022-10-28T02:06:07.233Z,9.20
2022-10-28T02:08:52.931Z,9.30
2022-10-28T02:11:45.818Z,9.20
2022-10-28T02:14:45.715Z,9.40
2022-10-28T02:17:41.623Z,9.50
2022-10-28T02:20:32.787Z,9.50
2022-10-28T02:23:15.636Z,9.50
2022-10-28T02:25:51.678Z,9.40
2022-10-28T02:28:28.297Z,9.40
2022-10-28T02:31:04.216Z,9.40
2022-10-28T02:33:34.659Z,9.40
2022-10-28T02:36:06.651Z,9.40
2022-10-28T02:38:47.196Z,9.40
2022-10-28T02:41:31.162Z,9.40
2022-10-28T02:44:02.257Z,9.40
2022-10-28T02:46:31.559Z,9.40
2022-10-28T02:49:03.954Z,9.40
2022-10-28T02:51:36.604Z,9.40
2022-10-28T02:54:14.315Z,9.40
2022-10-28T02:56:55.203Z,9.40
2022-10-28T02:59:24.710Z,9.50
2022-10-28T03:01:52.240Z,9.50
2022-10-28T03:04:19.182Z,9.50
2022-10-28T03:06:46.035Z,9.50
2022-10-28T03:09:12.947Z,9.50
2022-10-28T03:11:39.853Z,9.50
2022-10-28T03:14:09.528Z,9.60
2022-10-28T03:16:38.958Z,9.50
2022-10-28T03:19:05.805Z,9.50
2022-10-28T03:21:32.716Z,9.50
2022-10-28T03:23:59.602Z,9.50
2022-10-28T03:26:26.424Z,9.50
2022-10-28T03:28:53.216Z,9.50
2022-10-28T03:31:20.064Z,9.50
2022-10-28T03:33:46.974Z,9.60
2022-10-28T03:36:13.874Z,9.50
2022-10-28T03:38:40.717Z,9.50
2022-10-28T03:41:07.607Z,9.50
2022-10-28T03:43:34.463Z,9.50
2022-10-28T03:46:01.367Z,9.50
2022-10-28T03:48:28.234Z,9.50
2022-10-28T03:50:55.599Z,9.50
2022-10-28T03:53:26.280Z,9.50
2022-10-28T03:55:55.695Z,9.60
2022-10-28T03:58:23.354Z,9.50
2022-10-28T04:00:51.176Z,9.60
2022-10-28T04:03:20.237Z,9.70
2022-10-28T04:05:49.983Z,9.80
2022-10-28T04:08:17.978Z,9.80
2022-10-28T04:10:47.531Z,9.70
2022-10-28T04:13:15.869Z,9.70
2022-10-28T04:15:42.933Z,9.60
2022-10-28T04:18:12.297Z,9.50
2022-10-28T04:20:39.821Z,9.50
2022-10-28T04:23:06.956Z,9.50
2022-10-28T04:25:33.855Z,9.40
2022-10-28T04:28:00.641Z,9.40
2022-10-28T04:30:27.606Z,9.40
2022-10-28T04:32:54.647Z,9.30
2022-10-28T04:35:21.486Z,9.30
2022-10-28T04:37:48.463Z,9.30
2022-10-28T04:40:15.473Z,9.30
2022-10-28T04:42:42.360Z,9.30
2022-10-28T04:45:09.840Z,9.30
2022-10-28T04:47:36.686Z,9.30
2022-10-28T04:50:04.530Z,9.30
2022-10-28T04:52:31.442Z,9.30
2022-10-28T04:54:58.349Z,9.30
2022-10-28T04:57:25.334Z,9.40
2022-10-28T04:59:52.190Z,9.30
2022-10-28T05:02:19.119Z,9.40
2022-10-28T05:04:46.054Z,9.40
2022-10-28T05:07:12.922Z,9.40
2022-10-28T05:09:39.744Z,9.40
2022-10-28T05:12:07.051Z,9.40
2022-10-28T05:14:33.925Z,9.40
2022-10-28T05:17:00.751Z,9.40
2022-10-28T05:19:27.555Z,9.40
2022-10-28T05:21:54.335Z,9.40
2022-10-28T05:24:21.195Z,9.30
2022-10-28T05:26:48.015Z,9.30
2022-10-28T05:29:14.865Z,9.30
2022-10-28T05:31:41.774Z,9.20
2022-10-28T05:34:08.626Z,9.20
2022-10-28T05:36:35.385Z,9.20
2022-10-28T05:39:02.564Z,9.20
2022-10-28T05:41:29.510Z,9.10
2022-10-28T05:43:56.431Z,9.10
2022-10-28T05:46:23.402Z,9.10
2022-10-28T05:48:50.160Z,9.10
2022-10-28T05:51:16.978Z,9.10
2022-10-28T05:53:44.475Z,8.90
2022-10-28T05:56:11.360Z,8.90
2022-10-28T05:58:38.199Z,8.80
2022-10-28T06:01:08.938Z,8.80
2022-10-28T06:03:36.121Z,8.80
2022-10-28T06:06:03.143Z,8.80
2022-10-28T06:08:30.647Z,8.80
2022-10-28T06:10:56.270Z,8.80
2022-10-28T06:13:23.573Z,8.80
2022-10-28T06:15:54.776Z,8.80
2022-10-28T06:18:22.407Z,8.80
2022-10-28T06:20:54.221Z,8.70
2022-10-28T06:23:22.012Z,8.70
2022-10-28T06:25:49.427Z,8.70
2022-10-28T06:28:16.430Z,8.80
2022-10-28T06:30:43.251Z,8.80
2022-10-28T06:33:10.138Z,8.80
2022-10-28T06:35:37.012Z,8.80
2022-10-28T06:38:08.501Z,8.90
2022-10-28T06:40:36.359Z,8.90
2022-10-28T06:43:05.694Z,8.90
2022-10-28T06:45:33.527Z,8.90
2022-10-28T06:48:04.924Z,8.90
2022-10-28T06:50:33.705Z,8.80
2022-10-28T06:53:00.735Z,8.90
2022-10-28T06:55:28.670Z,8.90
2022-10-28T06:58:00.201Z,8.90
2022-10-28T07:00:27.427Z,8.90
2022-10-28T07:02:55.162Z,8.90
2022-10-28T07:05:23.932Z,9.00
2022-10-28T07:07:51.125Z,9.00
2022-10-28T07:10:18.213Z,9.00
2022-10-28T07:12:45.241Z,9.00
2022-10-28T07:15:12.194Z,8.90
2022-10-28T07:17:39.107Z,8.90
2022-10-28T07:20:06.438Z,8.90
2022-10-28T07:22:33.356Z,8.90
2022-10-28T07:25:00.286Z,9.00
2022-10-28T07:27:27.240Z,8.90
2022-10-28T07:29:54.017Z,8.80
2022-10-28T07:32:20.885Z,8.80
2022-10-28T07:34:47.786Z,8.70
2022-10-28T07:37:14.689Z,8.60
2022-10-28T07:39:41.541Z,8.60
2022-10-28T07:42:08.386Z,8.60
2022-10-28T07:44:35.194Z,8.60
2022-10-28T07:47:02.073Z,8.60
2022-10-28T07:49:28.884Z,8.60
2022-10-28T07:51:56.101Z,8.70
2022-10-28T07:54:23.167Z,8.70
2022-10-28T07:56:49.990Z,8.80
2022-10-28T07:59:16.849Z,8.80
2022-10-28T08:01:43.840Z,8.80
2022-10-28T08:04:10.992Z,8.80
2022-10-28T08:06:37.867Z,8.80
2022-10-28T08:09:04.799Z,8.70
2022-10-28T08:11:31.781Z,8.70
2022-10-28T08:13:58.701Z,8.80
2022-10-28T08:16:25.742Z,8.80
2022-10-28T08:18:53.275Z,8.90
2022-10-28T08:21:20.096Z,8.90
2022-10-28T08:23:47.143Z,9.00
2022-10-28T08:26:15.627Z,9.00
2022-10-28T08:28:43.044Z,9.10
2022-10-28T08:31:12.225Z,9.20
2022-10-28T08:33:42.352Z,9.20
2022-10-28T08:36:12.292Z,9.20
2022-10-28T08:38:44.293Z,9.20
2022-10-28T08:41:27.111Z,9.30
2022-10-28T08:44:19.947Z,9.40
2022-10-28T08:47:15.662Z,9.50
2022-10-28T08:49:47.056Z,9.60
2022-10-28T08:52:19.448Z,9.70
2022-10-28T08:54:55.507Z,9.80
2022-10-28T08:57:37.905Z,9.80
2022-10-28T09:00:13.601Z,10.00
2022-10-28T09:03:03.498Z,10.00
2022-10-28T09:05:30.461Z,10.10
2022-10-28T09:07:58.357Z,10.20
2022-10-28T09:10:58.351Z,10.20
2022-10-28T09:13:32.303Z,10.30
2022-10-28T09:15:59.272Z,10.30
2022-10-28T09:18:48.799Z,10.30
2022-10-28T09:21:22.879Z,10.40
2022-10-28T09:24:04.559Z,10.40
2022-10-28T09:27:06.077Z,10.50
2022-10-28T09:29:41.800Z,10.60
2022-10-28T09:32:43.006Z,10.80
2022-10-28T09:35:20.367Z,10.80
2022-10-28T09:37:56.939Z,10.90
2022-10-28T09:40:27.426Z,11.00
2022-10-28T09:43:03.192Z,11.00
2022-10-28T09:45:33.351Z,11.00
2022-10-28T09:48:12.221Z,11.00
2022-10-28T09:50:39.614Z,10.90
2022-10-28T09:53:33.730Z,10.90
2022-10-28T09:56:03.732Z,10.70
2022-10-28T09:58:32.906Z,10.70
2022-10-28T10:00:59.992Z,10.70
2022-10-28T10:03:27.029Z,10.60
2022-10-28T10:05:57.518Z,10.70
2022-10-28T10:08:25.195Z,10.70
2022-10-28T10:10:56.972Z,10.80
2022-10-28T10:13:45.363Z,11.00
2022-10-28T10:16:19.722Z,11.10
2022-10-28T10:18:53.226Z,11.20
2022-10-28T10:21:42.116Z,11.30
2022-10-28T10:24:21.292Z,11.50
2022-10-28T10:26:48.160Z,11.60
2022-10-28T10:29:15.007Z,11.80
2022-10-28T10:31:42.406Z,11.80
2022-10-28T10:34:24.045Z,12.00
2022-10-28T10:36:54.277Z,12.30
2022-10-28T10:39:29.070Z,12.40
2022-10-28T10:41:55.997Z,12.50
2022-10-28T10:44:22.838Z,12.70
2022-10-28T10:47:06.269Z,12.80
2022-10-28T10:49:35.137Z,12.90
2022-10-28T10:52:07.704Z,13.00
2022-10-28T10:54:37.422Z,13.10
2022-10-28T10:57:08.699Z,13.20
2022-10-28T10:59:37.828Z,13.20
2022-10-28T11:02:35.656Z,13.30
2022-10-28T11:05:06.672Z,13.50
2022-10-28T11:07:33.931Z,13.70
2022-10-28T11:10:01.994Z,13.80
2022-10-28T11:12:28.778Z,13.90
2022-10-28T11:15:01.298Z,13.90
2022-10-28T11:17:34.228Z,14.00
2022-10-28T11:20:25.039Z,14.00
2022-10-28T11:23:08.811Z,14.00
2022-10-28T11:25:43.912Z,14.00
2022-10-28T11:28:25.233Z,13.90
2022-10-28T11:31:12.375Z,13.90
2022-10-28T11:33:57.637Z,13.90
2022-10-28T11:36:47.262Z,14.00
2022-10-28T11:39:20.799Z,14.00
2022-10-28T11:41:59.209Z,14.00
2022-10-28T11:44:31.179Z,14.00
2022-10-28T11:47:21.088Z,14.00
2022-10-28T11:50:06.158Z,13.90
2022-10-28T11:52:45.555Z,14.00
2022-10-28T11:55:33.990Z,14.00
2022-10-28T11:58:22.937Z,14.00
2022-10-28T12:01:20.095Z,14.10
2022-10-28T12:03:53.745Z,14.10
2022-10-28T12:06:25.736Z,14.20
2022-10-28T12:09:37.523Z,14.30
2022-10-28T12:12:16.638Z,14.30
2022-10-28T12:14:54.784Z,14.30
2022-10-28T12:17:30.562Z,14.40
2022-10-28T12:20:03.224Z,14.50
2022-10-28T12:22:45.177Z,14.50
2022-10-28T12:25:19.415Z,14.40
2022-10-28T12:27:50.388Z,14.50
2022-10-28T12:30:33.592Z,14.50
2022-10-28T12:33:09.940Z,14.50
2022-10-28T12:35:46.917Z,14.50
2022-10-28T12:38:19.618Z,14.50
2022-10-28T12:40:53.078Z,14.50
2022-10-28T12:43:24.219Z,14.50
2022-10-28T12:45:54.840Z,14.50
2022-10-28T12:48:46.936Z,14.40
2022-10-28T12:51:23.971Z,14.40
2022-10-28T12:54:03.184Z,14.30
2022-10-28T12:56:49.064Z,14.30
2022-10-28T12:59:39.013Z,14.30
2022-10-28T13:02:20.080Z,14.30
2022-10-28T13:04:47.331Z,14.30
2022-10-28T13:07:26.584Z,14.30
2022-10-28T13:10:25.914Z,14.40
2022-10-28T13:13:14.698Z,14.30
2022-10-28T13:16:09.490Z,14.40
2022-10-28T13:19:17.490Z,14.30
2022-10-28T13:21:54.101Z,14.30
2022-10-28T13:24:47.830Z,14.30
2022-10-28T13:27:15.496Z,14.30
2022-10-28T13:29:49.620Z,14.30
2022-10-28T13:32:37.402Z,14.30
2022-10-28T13:35:22.611Z,14.20
2022-10-28T13:37:51.768Z,14.20
2022-10-28T13:40:32.743Z,14.30
2022-10-28T13:43:01.020Z,14.20
2022-10-28T13:45:48.166Z,14.20
2022-10-28T13:48:30.341Z,14.10
2022-10-28T13:51:09.637Z,14.10
2022-10-28T13:53:45.696Z,14.00
2022-10-28T13:56:32.564Z,13.90
2022-10-28T13:59:16.054Z,13.90
2022-10-28T14:02:38.656Z,14.00
2022-10-28T14:05:14.005Z,13.90
2022-10-28T14:08:21.359Z,13.90
2022-10-28T14:11:14.386Z,13.90
2022-10-28T14:13:52.831Z,13.90
2022-10-28T14:16:31.519Z,13.90
2022-10-28T14:19:10.455Z,13.90
2022-10-28T14:22:02.531Z,13.90
2022-10-28T14:24:31.804Z,13.90
2022-10-28T14:27:15.403Z,13.80
2022-10-28T14:30:21.397Z,13.70
2022-10-28T14:32:58.658Z,13.70
2022-10-28T14:35:47.778Z,13.70
2022-10-28T14:38:47.366Z,13.70
2022-10-28T14:41:54.719Z,13.70
2022-10-28T14:44:52.488Z,13.60
2022-10-28T14:47:41.226Z,13.60
2022-10-28T14:50:24.909Z,13.50
2022-10-28T14:52:54.118Z,13.40
2022-10-28T14:55:31.394Z,13.30
2022-10-28T14:58:24.142Z,13.20
2022-10-28T15:01:19.668Z,13.20
2022-10-28T15:03:50.514Z,13.10
2022-10-28T15:06:40.779Z,13.10
2022-10-28T15:09:19.786Z,13.00
2022-10-28T15:11:53.604Z,13.00
2022-10-28T15:14:36.726Z,13.00
2022-10-28T15:17:24.537Z,12.90
2022-10-28T15:19:57.528Z,12.90
2022-10-28T15:22:26.663Z,12.80
2022-10-28T15:25:00.652Z,12.80
2022-10-28T15:27:37.730Z,12.80
2022-10-28T15:30:20.877Z,12.70
2022-10-28T15:32:47.786Z,12.60
2022-10-28T15:35:30.090Z,12.60
2022-10-28T15:38:00.967Z,12.40
2022-10-28T15:40:35.082Z,12.30
2022-10-28T15:43:06.912Z,12.30
2022-10-28T15:45:41.258Z,12.20
2022-10-28T15:48:14.902Z,12.10
2022-10-28T15:50:42.244Z,12.10
2022-10-28T15:53:12.524Z,12.10
2022-10-28T15:56:06.661Z,12.10
2022-10-28T15:58:33.730Z,12.00
2022-10-28T16:01:00.627Z,12.00
2022-10-28T16:05:58.501Z,11.90
2022-10-28T16:08:28.832Z,11.90
2022-10-28T16:11:04.862Z,11.80
2022-10-28T16:13:31.705Z,11.80
2022-10-28T16:16:03.203Z,11.80
2022-10-28T16:18:32.874Z,11.70
2022-10-28T16:21:01.153Z,11.60
2022-10-28T16:23:36.761Z,11.60
2022-10-28T16:26:03.965Z,11.50
2022-10-28T16:28:32.105Z,11.50
2022-10-28T16:31:00.257Z,11.50
2022-10-28T16:33:28.701Z,11.50
2022-10-28T16:35:56.095Z,11.40
2022-10-28T16:38:23.947Z,11.50
2022-10-28T16:40:52.536Z,11.50
2022-10-28T16:43:23.052Z,11.50
2022-10-28T16:45:51.375Z,11.40
2022-10-28T16:48:20.170Z,11.40
2022-10-28T16:50:52.789Z,11.30
2022-10-28T16:53:20.321Z,11.20
2022-10-28T16:55:47.497Z,11.20
2022-10-28T16:58:14.616Z,11.20
2022-10-28T17:00:42.380Z,11.30
2022-10-28T17:03:14.109Z,11.20
2022-10-28T17:05:41.787Z,11.20
2022-10-28T17:08:09.871Z,11.10
2022-10-28T17:10:37.005Z,11.10
2022-10-28T17:13:03.857Z,11.10
2022-10-28T17:15:30.737Z,11.10
2022-10-28T17:17:58.055Z,11.00
2022-10-28T17:20:24.936Z,11.00
2022-10-28T17:22:52.100Z,11.00
2022-10-28T17:25:19.076Z,11.00
2022-10-28T17:27:48.879Z,11.00
2022-10-28T17:30:17.572Z,11.00
2022-10-28T17:32:48.829Z,11.10
2022-10-28T17:35:16.008Z,11.10
2022-10-28T17:37:42.924Z,11.10
2022-10-28T17:40:11.306Z,11.10
2022-10-28T17:42:38.373Z,11.00
2022-10-28T17:45:06.659Z,11.00
2022-10-28T17:47:34.214Z,11.00
2022-10-28T17:50:01.576Z,11.00
2022-10-28T17:52:31.836Z,11.00
2022-10-28T17:55:02.638Z,11.00
2022-10-28T17:57:29.486Z,11.00
2022-10-28T17:59:56.449Z,11.00
2022-10-28T18:02:23.718Z,11.00
2022-10-28T18:04:50.644Z,11.00
2022-10-28T18:07:17.490Z,11.00
2022-10-28T18:09:44.449Z,11.00
2022-10-28T18:12:12.571Z,11.00
2022-10-28T18:14:39.331Z,11.00
2022-10-28T18:17:06.311Z,11.00
2022-10-28T18:19:33.313Z,11.00
2022-10-28T18:22:00.801Z,11.10
2022-10-28T18:24:27.714Z,11.10
2022-10-28T18:26:55.908Z,11.10
2022-10-28T18:29:22.769Z,11.10
2022-10-28T18:31:49.756Z,11.10
2022-10-28T18:34:16.739Z,11.10
2022-10-28T18:36:43.626Z,11.10
2022-10-28T18:39:10.499Z,11.10
2022-10-28T18:41:41.835Z,11.10
2022-10-28T18:44:14.446Z,11.10
2022-10-28T18:46:42.729Z,11.10
2022-10-28T18:49:09.463Z,11.10
2022-10-28T18:51:36.845Z,11.10
2022-10-28T18:54:04.457Z,11.10
2022-10-28T18:56:31.359Z,11.10
2022-10-28T18:58:58.798Z,11.10
2022-10-28T19:01:29.383Z,11.10
2022-10-28T19:04:01.500Z,11.10
2022-10-28T19:06:32.574Z,11.10
2022-10-28T19:09:02.294Z,11.10
2022-10-28T19:11:31.247Z,11.10
2022-10-28T19:14:02.880Z,11.10
2022-10-28T19:16:33.391Z,11.10
2022-10-28T19:19:02.140Z,11.10
2022-10-28T19:21:29.557Z,11.10
2022-10-28T19:23:56.776Z,11.10
2022-10-28T19:26:23.816Z,11.10
2022-10-28T19:28:51.634Z,11.10
2022-10-28T19:31:20.895Z,11.20
2022-10-28T19:33:48.149Z,11.20
2022-10-28T19:36:20.623Z,11.30
2022-10-28T19:38:49.096Z,11.30
2022-10-28T19:41:19.090Z,11.40
2022-10-28T19:43:46.934Z,11.40
2022-10-28T19:46:20.741Z,11.40
2022-10-28T19:48:53.083Z,11.50
2022-10-28T19:51:22.479Z,11.60
2022-10-28T19:53:54.041Z,11.50
2022-10-28T19:56:21.188Z,11.60
2022-10-28T19:58:53.186Z,11.60
2022-10-28T20:01:21.783Z,11.70
2022-10-28T20:03:53.489Z,11.70
2022-10-28T20:06:22.922Z,11.70
2022-10-28T20:08:50.165Z,11.80
2022-10-28T20:11:25.885Z,11.90
2022-10-28T20:14:04.163Z,11.90
2022-10-28T20:16:32.410Z,11.90
2022-10-28T20:18:59.760Z,11.90
2022-10-28T20:21:28.496Z,11.90
2022-10-28T20:23:56.848Z,11.90
2022-10-28T20:26:26.436Z,11.80
2022-10-28T20:28:53.289Z,11.80
2022-10-28T20:31:22.542Z,11.70
2022-10-28T20:33:54.425Z,11.80
2022-10-28T20:36:26.833Z,11.80
2022-10-28T20:39:01.978Z,11.90
2022-10-28T20:41:33.832Z,11.80
2022-10-28T20:44:02.556Z,11.80
2022-10-28T20:46:30.082Z,11.70
2022-10-28T20:48:57.155Z,11.70
2022-10-28T20:51:25.977Z,11.60
2022-10-28T20:53:52.844Z,11.60
2022-10-28T20:56:24.960Z,11.60
2022-10-28T20:58:52.986Z,11.70
2022-10-28T21:01:37.793Z,11.70
2022-10-28T21:04:08.735Z,11.70
2022-10-28T21:06:36.833Z,11.70
2022-10-28T21:09:05.329Z,11.70
2022-10-28T21:11:32.701Z,11.80
2022-10-28T21:14:01.490Z,11.80
2022-10-28T21:16:29.902Z,11.80
2022-10-28T21:18:57.384Z,11.80
2022-10-28T21:21:24.749Z,11.80
2022-10-28T21:23:52.109Z,11.80
2022-10-28T21:26:21.927Z,11.80
2022-10-28T21:28:52.540Z,11.80
2022-10-28T21:31:20.968Z,11.80
2022-10-28T21:36:18.225Z,11.70
2022-10-28T21:38:45.381Z,11.70
2022-10-28T21:41:17.895Z,11.60
2022-10-28T21:43:48.856Z,11.60
2022-10-28T21:46:17.255Z,11.70
2022-10-28T21:48:46.497Z,11.70
2022-10-28T21:51:15.483Z,11.70
2022-10-28T21:53:44.151Z,11.70
2022-10-28T21:56:17.029Z,11.70
2022-10-28T21:58:45.892Z,11.70
2022-10-28T22:01:24.064Z,11.70
2022-10-28T22:03:54.420Z,11.70
2022-10-28T22:06:21.580Z,11.70
2022-10-28T22:08:48.416Z,11.70
2022-10-28T22:11:17.812Z,11.70
2022-10-28T22:13:45.336Z,11.70
2022-10-28T22:16:14.464Z,11.70
2022-10-28T22:18:41.926Z,11.70
2022-10-28T22:21:19.535Z,11.70
2022-10-28T22:23:47.124Z,11.70
2022-10-28T22:26:17.393Z,11.70
2022-10-28T22:28:45.192Z,11.70
2022-10-28T22:31:14.500Z,11.70
2022-10-28T22:33:41.937Z,11.60
2022-10-28T22:36:15.741Z,11.60
2022-10-28T22:38:42.967Z,11.60
2022-10-28T22:41:20.556Z,11.60
2022-10-28T22:43:52.834Z,11.50
2022-10-28T22:46:21.001Z,11.50
2022-10-28T22:48:48.556Z,11.50
2022-10-28T22:51:16.467Z,11.50
2022-10-28T22:53:44.012Z,11.40
2022-10-28T22:56:18.495Z,11.50
2022-10-28T22:58:45.452Z,11.50
2022-10-28T23:01:17.862Z,11.50
2022-10-28T23:03:47.045Z,11.50
2022-10-28T23:06:16.096Z,11.50
2022-10-28T23:08:44.911Z,11.40
2022-10-28T23:11:12.546Z,11.30
2022-10-28T23:13:39.808Z,11.20
2022-10-28T23:16:09.029Z,11.20
2022-10-28T23:18:36.456Z,11.30
2022-10-28T23:21:15.741Z,11.30
2022-10-28T23:23:43.137Z,11.40
2022-10-28T23:26:11.280Z,11.40
2022-10-28T23:28:38.261Z,11.40
2022-10-28T23:31:06.680Z,11.50
2022-10-28T23:33:34.887Z,11.50
2022-10-28T23:36:03.657Z,11.60
2022-10-28T23:38:31.566Z,11.70
2022-10-28T23:41:03.545Z,11.70
2022-10-28T23:43:31.815Z,11.80
2022-10-28T23:45:58.858Z,11.80
2022-10-28T23:48:27.158Z,12.00
2022-10-28T23:50:54.703Z,12.00
2022-10-28T23:53:22.675Z,12.00
2022-10-28T23:55:50.962Z,12.00
2022-10-28T23:58:19.700Z,12.00
